sensor_id;sensor_type;location;lat;lon;timestamp;P1;durP1;ratioP1;P2;durP2;ratioP2
25868;SDS011;13688;53.154;18.136;2023-01-13T00:04:51;7.13;;;4.10;;
25868;SDS011;13688;53.154;18.136;2023-01-13T00:10:14;9.70;;;4.33;;
25868;SDS011;13688;53.154;18.136;2023-01-13T00:15:37;9.47;;;4.97;;
25868;SDS011;13688;53.154;18.136;2023-01-13T00:21:11;8.77;;;4.67;;
25868;SDS011;13688;53.154;18.136;2023-01-13T00:26:35;8.53;;;5.12;;
25868;SDS011;13688;53.154;18.136;2023-01-13T00:31:57;8.13;;;4.83;;
25868;SDS011;13688;53.154;18.136;2023-01-13T00:37:20;8.93;;;5.22;;
25868;SDS011;13688;53.154;18.136;2023-01-13T00:42:44;8.07;;;4.63;;
25868;SDS011;13688;53.154;18.136;2023-01-13T00:48:25;8.67;;;4.20;;
25868;SDS011;13688;53.154;18.136;2023-01-13T00:53:49;6.13;;;4.03;;
25868;SDS011;13688;53.154;18.136;2023-01-13T00:59:13;6.87;;;4.40;;
25868;SDS011;13688;53.154;18.136;2023-01-13T01:04:35;8.73;;;4.70;;
25868;SDS011;13688;53.154;18.136;2023-01-13T01:09:58;9.85;;;5.47;;
25868;SDS011;13688;53.154;18.136;2023-01-13T01:15:20;7.37;;;4.40;;
25868;SDS011;13688;53.154;18.136;2023-01-13T01:20:43;7.23;;;4.13;;
25868;SDS011;13688;53.154;18.136;2023-01-13T01:26:17;6.00;;;4.10;;
25868;SDS011;13688;53.154;18.136;2023-01-13T01:31:39;6.07;;;3.70;;
25868;SDS011;13688;53.154;18.136;2023-01-13T01:37:02;6.78;;;3.87;;
25868;SDS011;13688;53.154;18.136;2023-01-13T01:42:24;6.50;;;3.52;;
25868;SDS011;13688;53.154;18.136;2023-01-13T01:48:05;5.80;;;3.67;;
25868;SDS011;13688;53.154;18.136;2023-01-13T01:53:29;6.70;;;3.90;;
25868;SDS011;13688;53.154;18.136;2023-01-13T01:58:54;4.90;;;3.23;;
25868;SDS011;13688;53.154;18.136;2023-01-13T02:04:18;6.00;;;3.00;;
25868;SDS011;13688;53.154;18.136;2023-01-13T02:09:48;3.60;;;2.63;;
25868;SDS011;13688;53.154;18.136;2023-01-13T02:15:17;6.72;;;3.02;;
25868;SDS011;13688;53.154;18.136;2023-01-13T02:38:36;3.87;;;3.03;;
25868;SDS011;13688;53.154;18.136;2023-01-13T02:44:07;4.35;;;2.70;;
25868;SDS011;13688;53.154;18.136;2023-01-13T02:49:42;4.10;;;3.05;;
25868;SDS011;13688;53.154;18.136;2023-01-13T02:55:14;5.10;;;2.90;;
25868;SDS011;13688;53.154;18.136;2023-01-13T03:00:40;5.62;;;2.50;;
25868;SDS011;13688;53.154;18.136;2023-01-13T03:06:22;3.77;;;2.73;;
25868;SDS011;13688;53.154;18.136;2023-01-13T03:11:54;5.33;;;2.83;;
25868;SDS011;13688;53.154;18.136;2023-01-13T03:17:40;3.23;;;2.27;;
25868;SDS011;13688;53.154;18.136;2023-01-13T03:23:23;4.97;;;2.72;;
25868;SDS011;13688;53.154;18.136;2023-01-13T03:28:45;6.10;;;2.87;;
25868;SDS011;13688;53.154;18.136;2023-01-13T03:34:16;3.80;;;2.58;;
25868;SDS011;13688;53.154;18.136;2023-01-13T03:39:53;3.73;;;2.47;;
25868;SDS011;13688;53.154;18.136;2023-01-13T03:45:19;3.83;;;2.30;;
25868;SDS011;13688;53.154;18.136;2023-01-13T03:50:49;5.30;;;2.80;;
25868;SDS011;13688;53.154;18.136;2023-01-13T03:56:19;3.13;;;2.50;;
25868;SDS011;13688;53.154;18.136;2023-01-13T04:02:01;4.00;;;2.40;;
25868;SDS011;13688;53.154;18.136;2023-01-13T04:13:16;3.67;;;2.40;;
25868;SDS011;13688;53.154;18.136;2023-01-13T04:18:42;5.77;;;2.40;;
25868;SDS011;13688;53.154;18.136;2023-01-13T04:24:05;3.93;;;2.50;;
25868;SDS011;13688;53.154;18.136;2023-01-13T04:29:28;3.43;;;2.60;;
25868;SDS011;13688;53.154;18.136;2023-01-13T04:34:50;3.60;;;2.70;;
25868;SDS011;13688;53.154;18.136;2023-01-13T04:40:14;5.80;;;2.63;;
25868;SDS011;13688;53.154;18.136;2023-01-13T04:45:37;4.43;;;2.93;;
25868;SDS011;13688;53.154;18.136;2023-01-13T04:50:59;4.50;;;2.80;;
25868;SDS011;13688;53.154;18.136;2023-01-13T04:56:22;5.60;;;2.80;;
25868;SDS011;13688;53.154;18.136;2023-01-13T05:01:44;5.50;;;2.93;;
25868;SDS011;13688;53.154;18.136;2023-01-13T05:07:06;3.58;;;2.40;;
25868;SDS011;13688;53.154;18.136;2023-01-13T05:12:30;3.22;;;2.22;;
25868;SDS011;13688;53.154;18.136;2023-01-13T05:18:10;5.13;;;2.50;;
25868;SDS011;13688;53.154;18.136;2023-01-13T05:23:33;3.08;;;2.37;;
25868;SDS011;13688;53.154;18.136;2023-01-13T05:29:14;3.27;;;2.58;;
25868;SDS011;13688;53.154;18.136;2023-01-13T05:34:36;4.67;;;2.70;;
25868;SDS011;13688;53.154;18.136;2023-01-13T05:39:59;4.87;;;2.42;;
25868;SDS011;13688;53.154;18.136;2023-01-13T05:45:42;4.62;;;2.20;;
25868;SDS011;13688;53.154;18.136;2023-01-13T05:51:09;3.90;;;2.40;;
25868;SDS011;13688;53.154;18.136;2023-01-13T05:56:32;4.10;;;2.30;;
25868;SDS011;13688;53.154;18.136;2023-01-13T06:01:54;3.47;;;2.52;;
25868;SDS011;13688;53.154;18.136;2023-01-13T06:07:16;4.20;;;2.75;;
25868;SDS011;13688;53.154;18.136;2023-01-13T06:12:39;5.12;;;2.65;;
25868;SDS011;13688;53.154;18.136;2023-01-13T06:18:02;3.80;;;2.30;;
25868;SDS011;13688;53.154;18.136;2023-01-13T06:23:25;3.07;;;2.07;;
25868;SDS011;13688;53.154;18.136;2023-01-13T06:28:47;3.60;;;2.23;;
25868;SDS011;13688;53.154;18.136;2023-01-13T06:34:11;3.30;;;2.15;;
25868;SDS011;13688;53.154;18.136;2023-01-13T06:39:35;5.12;;;2.17;;
25868;SDS011;13688;53.154;18.136;2023-01-13T06:44:59;3.25;;;2.15;;
25868;SDS011;13688;53.154;18.136;2023-01-13T06:50:23;7.37;;;3.00;;
25868;SDS011;13688;53.154;18.136;2023-01-13T06:55:45;5.40;;;2.62;;
25868;SDS011;13688;53.154;18.136;2023-01-13T07:01:07;5.17;;;2.80;;
25868;SDS011;13688;53.154;18.136;2023-01-13T07:06:30;4.80;;;2.42;;
25868;SDS011;13688;53.154;18.136;2023-01-13T07:11:52;6.30;;;2.67;;
25868;SDS011;13688;53.154;18.136;2023-01-13T07:17:15;3.85;;;2.05;;
25868;SDS011;13688;53.154;18.136;2023-01-13T07:22:37;5.80;;;2.80;;
25868;SDS011;13688;53.154;18.136;2023-01-13T07:28:03;4.12;;;2.40;;
25868;SDS011;13688;53.154;18.136;2023-01-13T07:33:26;4.72;;;2.95;;
25868;SDS011;13688;53.154;18.136;2023-01-13T07:38:48;4.42;;;2.40;;
25868;SDS011;13688;53.154;18.136;2023-01-13T07:44:11;4.60;;;2.70;;
25868;SDS011;13688;53.154;18.136;2023-01-13T07:49:34;5.20;;;2.90;;
25868;SDS011;13688;53.154;18.136;2023-01-13T07:54:56;7.47;;;3.10;;
25868;SDS011;13688;53.154;18.136;2023-01-13T08:00:19;5.62;;;3.08;;
25868;SDS011;13688;53.154;18.136;2023-01-13T08:05:41;4.97;;;2.75;;
25868;SDS011;13688;53.154;18.136;2023-01-13T08:11:04;5.08;;;2.58;;
25868;SDS011;13688;53.154;18.136;2023-01-13T08:16:28;3.80;;;2.27;;
25868;SDS011;13688;53.154;18.136;2023-01-13T08:21:50;4.10;;;2.20;;
25868;SDS011;13688;53.154;18.136;2023-01-13T08:27:13;3.77;;;2.60;;
25868;SDS011;13688;53.154;18.136;2023-01-13T08:32:35;5.58;;;2.35;;
25868;SDS011;13688;53.154;18.136;2023-01-13T08:38:01;3.45;;;2.40;;
25868;SDS011;13688;53.154;18.136;2023-01-13T08:43:24;6.65;;;3.70;;
25868;SDS011;13688;53.154;18.136;2023-01-13T08:48:47;3.62;;;2.33;;
25868;SDS011;13688;53.154;18.136;2023-01-13T08:54:10;4.63;;;2.83;;
25868;SDS011;13688;53.154;18.136;2023-01-13T08:59:34;4.03;;;2.50;;
25868;SDS011;13688;53.154;18.136;2023-01-13T09:04:57;5.25;;;2.37;;
25868;SDS011;13688;53.154;18.136;2023-01-13T09:10:22;5.00;;;2.52;;
25868;SDS011;13688;53.154;18.136;2023-01-13T09:15:44;4.87;;;2.45;;
25868;SDS011;13688;53.154;18.136;2023-01-13T09:21:11;3.47;;;2.40;;
25868;SDS011;13688;53.154;18.136;2023-01-13T09:26:32;4.47;;;2.40;;
25868;SDS011;13688;53.154;18.136;2023-01-13T09:31:55;4.65;;;2.35;;
25868;SDS011;13688;53.154;18.136;2023-01-13T09:37:19;4.37;;;2.45;;
25868;SDS011;13688;53.154;18.136;2023-01-13T09:42:53;3.85;;;2.05;;
25868;SDS011;13688;53.154;18.136;2023-01-13T09:48:43;3.90;;;2.00;;
25868;SDS011;13688;53.154;18.136;2023-01-13T09:54:16;5.03;;;2.55;;
25868;SDS011;13688;53.154;18.136;2023-01-13T09:59:37;5.20;;;2.42;;
25868;SDS011;13688;53.154;18.136;2023-01-13T10:05:21;6.60;;;2.43;;
25868;SDS011;13688;53.154;18.136;2023-01-13T10:22:44;4.23;;;2.30;;
25868;SDS011;13688;53.154;18.136;2023-01-13T10:28:25;7.23;;;2.37;;
25868;SDS011;13688;53.154;18.136;2023-01-13T10:33:47;3.25;;;1.90;;
25868;SDS011;13688;53.154;18.136;2023-01-13T10:39:15;4.00;;;2.12;;
25868;SDS011;13688;53.154;18.136;2023-01-13T10:44:59;7.50;;;2.07;;
25868;SDS011;13688;53.154;18.136;2023-01-13T10:55:37;7.20;;;2.80;;
25868;SDS011;13688;53.154;18.136;2023-01-13T11:01:04;4.85;;;2.95;;
25868;SDS011;13688;53.154;18.136;2023-01-13T11:06:37;6.03;;;2.80;;
25868;SDS011;13688;53.154;18.136;2023-01-13T11:12:03;4.53;;;2.15;;
25868;SDS011;13688;53.154;18.136;2023-01-13T11:17:57;4.33;;;2.35;;
25868;SDS011;13688;53.154;18.136;2023-01-13T11:23:54;6.22;;;2.33;;
25868;SDS011;13688;53.154;18.136;2023-01-13T11:29:29;5.92;;;2.60;;
25868;SDS011;13688;53.154;18.136;2023-01-13T11:35:20;4.55;;;2.10;;
25868;SDS011;13688;53.154;18.136;2023-01-13T11:40:45;4.33;;;2.23;;
25868;SDS011;13688;53.154;18.136;2023-01-13T11:51:33;6.17;;;3.07;;
25868;SDS011;13688;53.154;18.136;2023-01-13T12:08:41;4.65;;;2.50;;
25868;SDS011;13688;53.154;18.136;2023-01-13T12:26:08;8.48;;;3.10;;
25868;SDS011;13688;53.154;18.136;2023-01-13T12:31:36;6.25;;;2.77;;
25868;SDS011;13688;53.154;18.136;2023-01-13T12:37:06;4.42;;;3.00;;
25868;SDS011;13688;53.154;18.136;2023-01-13T12:42:40;6.58;;;2.80;;
25868;SDS011;13688;53.154;18.136;2023-01-13T13:05:32;6.65;;;3.05;;
25868;SDS011;13688;53.154;18.136;2023-01-13T13:17:01;6.95;;;3.15;;
25868;SDS011;13688;53.154;18.136;2023-01-13T13:22:43;7.35;;;3.83;;
25868;SDS011;13688;53.154;18.136;2023-01-13T13:28:08;9.55;;;4.20;;
25868;SDS011;13688;53.154;18.136;2023-01-13T13:39:27;8.98;;;4.90;;
25868;SDS011;13688;53.154;18.136;2023-01-13T13:45:26;10.08;;;5.30;;
25868;SDS011;13688;53.154;18.136;2023-01-13T13:51:19;13.13;;;4.70;;
25868;SDS011;13688;53.154;18.136;2023-01-13T13:56:43;11.03;;;4.90;;
25868;SDS011;13688;53.154;18.136;2023-01-13T14:02:10;13.70;;;5.20;;
25868;SDS011;13688;53.154;18.136;2023-01-13T14:07:50;7.92;;;3.70;;
25868;SDS011;13688;53.154;18.136;2023-01-13T14:13:29;6.43;;;3.60;;
25868;SDS011;13688;53.154;18.136;2023-01-13T14:18:52;6.13;;;3.17;;
25868;SDS011;13688;53.154;18.136;2023-01-13T14:24:15;8.53;;;3.90;;
25868;SDS011;13688;53.154;18.136;2023-01-13T14:29:38;7.80;;;3.20;;
25868;SDS011;13688;53.154;18.136;2023-01-13T14:35:06;6.10;;;3.07;;
25868;SDS011;13688;53.154;18.136;2023-01-13T14:45:58;6.47;;;2.83;;
25868;SDS011;13688;53.154;18.136;2023-01-13T14:51:25;4.03;;;2.20;;
25868;SDS011;13688;53.154;18.136;2023-01-13T15:08:16;4.85;;;1.95;;
25868;SDS011;13688;53.154;18.136;2023-01-13T15:13:44;4.47;;;2.27;;
25868;SDS011;13688;53.154;18.136;2023-01-13T15:19:12;7.37;;;3.00;;
25868;SDS011;13688;53.154;18.136;2023-01-13T15:24:34;6.28;;;3.00;;
25868;SDS011;13688;53.154;18.136;2023-01-13T15:29:58;7.25;;;3.42;;
25868;SDS011;13688;53.154;18.136;2023-01-13T15:35:43;7.07;;;2.87;;
25868;SDS011;13688;53.154;18.136;2023-01-13T15:41:07;6.57;;;2.73;;
25868;SDS011;13688;53.154;18.136;2023-01-13T15:46:51;8.03;;;2.97;;
25868;SDS011;13688;53.154;18.136;2023-01-13T15:52:18;8.40;;;3.83;;
25868;SDS011;13688;53.154;18.136;2023-01-13T15:57:44;8.23;;;3.77;;
25868;SDS011;13688;53.154;18.136;2023-01-13T16:03:13;11.27;;;4.60;;
25868;SDS011;13688;53.154;18.136;2023-01-13T16:08:36;7.97;;;4.47;;
25868;SDS011;13688;53.154;18.136;2023-01-13T16:13:59;8.23;;;4.12;;
25868;SDS011;13688;53.154;18.136;2023-01-13T16:19:21;9.87;;;4.30;;
25868;SDS011;13688;53.154;18.136;2023-01-13T16:24:44;10.55;;;3.92;;
25868;SDS011;13688;53.154;18.136;2023-01-13T16:30:09;11.30;;;3.93;;
25868;SDS011;13688;53.154;18.136;2023-01-13T16:35:43;7.03;;;3.70;;
25868;SDS011;13688;53.154;18.136;2023-01-13T16:41:07;8.83;;;4.45;;
25868;SDS011;13688;53.154;18.136;2023-01-13T16:46:30;7.30;;;3.67;;
25868;SDS011;13688;53.154;18.136;2023-01-13T16:51:53;8.08;;;4.00;;
25868;SDS011;13688;53.154;18.136;2023-01-13T16:57:16;7.58;;;3.90;;
25868;SDS011;13688;53.154;18.136;2023-01-13T17:02:39;8.05;;;4.05;;
25868;SDS011;13688;53.154;18.136;2023-01-13T17:08:11;8.48;;;4.20;;
25868;SDS011;13688;53.154;18.136;2023-01-13T17:13:34;6.37;;;3.33;;
25868;SDS011;13688;53.154;18.136;2023-01-13T17:18:57;8.45;;;4.20;;
25868;SDS011;13688;53.154;18.136;2023-01-13T17:24:23;9.33;;;4.50;;
25868;SDS011;13688;53.154;18.136;2023-01-13T17:29:45;10.48;;;4.70;;
25868;SDS011;13688;53.154;18.136;2023-01-13T17:35:08;12.28;;;4.28;;
25868;SDS011;13688;53.154;18.136;2023-01-13T17:40:31;7.97;;;4.12;;
25868;SDS011;13688;53.154;18.136;2023-01-13T17:45:54;9.00;;;4.20;;
25868;SDS011;13688;53.154;18.136;2023-01-13T17:51:22;7.00;;;3.80;;
25868;SDS011;13688;53.154;18.136;2023-01-13T17:56:44;8.73;;;3.42;;
25868;SDS011;13688;53.154;18.136;2023-01-13T18:02:08;8.90;;;3.65;;
25868;SDS011;13688;53.154;18.136;2023-01-13T18:07:33;9.00;;;3.83;;
25868;SDS011;13688;53.154;18.136;2023-01-13T18:12:56;9.58;;;3.33;;
25868;SDS011;13688;53.154;18.136;2023-01-13T18:18:19;9.18;;;3.60;;
25868;SDS011;13688;53.154;18.136;2023-01-13T18:23:43;9.78;;;3.75;;
25868;SDS011;13688;53.154;18.136;2023-01-13T18:29:25;9.38;;;3.70;;
25868;SDS011;13688;53.154;18.136;2023-01-13T18:34:48;7.12;;;3.35;;
25868;SDS011;13688;53.154;18.136;2023-01-13T18:40:13;9.10;;;3.35;;
25868;SDS011;13688;53.154;18.136;2023-01-13T18:45:35;8.33;;;3.20;;
25868;SDS011;13688;53.154;18.136;2023-01-13T18:51:00;7.78;;;3.27;;
25868;SDS011;13688;53.154;18.136;2023-01-13T18:56:24;7.17;;;2.95;;
25868;SDS011;13688;53.154;18.136;2023-01-13T19:02:04;7.53;;;3.03;;
25868;SDS011;13688;53.154;18.136;2023-01-13T19:07:31;8.87;;;3.30;;
25868;SDS011;13688;53.154;18.136;2023-01-13T19:12:54;6.83;;;2.98;;
25868;SDS011;13688;53.154;18.136;2023-01-13T19:18:19;8.40;;;3.57;;
25868;SDS011;13688;53.154;18.136;2023-01-13T19:23:42;9.03;;;3.57;;
25868;SDS011;13688;53.154;18.136;2023-01-13T19:29:07;10.13;;;3.33;;
25868;SDS011;13688;53.154;18.136;2023-01-13T19:34:30;8.17;;;2.97;;
25868;SDS011;13688;53.154;18.136;2023-01-13T19:39:53;14.07;;;4.83;;
25868;SDS011;13688;53.154;18.136;2023-01-13T19:45:17;11.37;;;4.33;;
25868;SDS011;13688;53.154;18.136;2023-01-13T19:50:40;15.60;;;5.40;;
25868;SDS011;13688;53.154;18.136;2023-01-13T19:56:04;11.17;;;5.40;;
25868;SDS011;13688;53.154;18.136;2023-01-13T20:01:30;13.30;;;5.28;;
25868;SDS011;13688;53.154;18.136;2023-01-13T20:06:53;13.70;;;5.70;;
25868;SDS011;13688;53.154;18.136;2023-01-13T20:12:19;12.50;;;5.35;;
25868;SDS011;13688;53.154;18.136;2023-01-13T20:17:41;13.17;;;5.20;;
25868;SDS011;13688;53.154;18.136;2023-01-13T20:23:04;11.18;;;5.15;;
25868;SDS011;13688;53.154;18.136;2023-01-13T20:28:26;14.75;;;6.00;;
25868;SDS011;13688;53.154;18.136;2023-01-13T20:33:48;13.05;;;5.60;;
25868;SDS011;13688;53.154;18.136;2023-01-13T20:39:16;15.60;;;6.15;;
25868;SDS011;13688;53.154;18.136;2023-01-13T20:44:39;15.95;;;6.25;;
25868;SDS011;13688;53.154;18.136;2023-01-13T20:50:01;12.70;;;5.87;;
25868;SDS011;13688;53.154;18.136;2023-01-13T20:55:23;10.50;;;5.30;;
25868;SDS011;13688;53.154;18.136;2023-01-13T21:00:48;12.65;;;5.47;;
25868;SDS011;13688;53.154;18.136;2023-01-13T21:06:12;10.95;;;5.08;;
25868;SDS011;13688;53.154;18.136;2023-01-13T21:11:36;11.25;;;5.45;;
25868;SDS011;13688;53.154;18.136;2023-01-13T21:17:18;13.60;;;5.67;;
25868;SDS011;13688;53.154;18.136;2023-01-13T21:23:00;11.47;;;4.80;;
25868;SDS011;13688;53.154;18.136;2023-01-13T21:28:22;10.35;;;4.65;;
25868;SDS011;13688;53.154;18.136;2023-01-13T21:33:45;12.88;;;5.08;;
25868;SDS011;13688;53.154;18.136;2023-01-13T21:39:08;11.10;;;4.80;;
25868;SDS011;13688;53.154;18.136;2023-01-13T21:44:32;13.03;;;4.35;;
25868;SDS011;13688;53.154;18.136;2023-01-13T21:50:13;9.93;;;4.05;;
25868;SDS011;13688;53.154;18.136;2023-01-13T21:55:37;11.43;;;4.65;;
25868;SDS011;13688;53.154;18.136;2023-01-13T22:01:01;12.07;;;4.50;;
25868;SDS011;13688;53.154;18.136;2023-01-13T22:06:24;12.60;;;4.70;;
25868;SDS011;13688;53.154;18.136;2023-01-13T22:11:47;10.50;;;4.63;;
25868;SDS011;13688;53.154;18.136;2023-01-13T22:17:12;15.15;;;4.47;;
25868;SDS011;13688;53.154;18.136;2023-01-13T22:22:35;11.05;;;4.80;;
25868;SDS011;13688;53.154;18.136;2023-01-13T22:27:58;11.43;;;4.37;;
25868;SDS011;13688;53.154;18.136;2023-01-13T22:33:23;11.80;;;4.90;;
25868;SDS011;13688;53.154;18.136;2023-01-13T22:38:45;11.57;;;4.70;;
25868;SDS011;13688;53.154;18.136;2023-01-13T22:44:09;12.87;;;3.73;;
25868;SDS011;13688;53.154;18.136;2023-01-13T22:49:31;13.57;;;4.17;;
25868;SDS011;13688;53.154;18.136;2023-01-13T22:54:54;10.70;;;4.60;;
25868;SDS011;13688;53.154;18.136;2023-01-13T23:00:17;8.73;;;3.50;;
25868;SDS011;13688;53.154;18.136;2023-01-13T23:05:39;11.28;;;4.12;;
25868;SDS011;13688;53.154;18.136;2023-01-13T23:11:08;10.00;;;4.00;;
25868;SDS011;13688;53.154;18.136;2023-01-13T23:16:35;11.53;;;4.10;;
25868;SDS011;13688;53.154;18.136;2023-01-13T23:21:58;8.90;;;3.47;;
25868;SDS011;13688;53.154;18.136;2023-01-13T23:27:20;10.17;;;3.57;;
25868;SDS011;13688;53.154;18.136;2023-01-13T23:32:43;11.23;;;4.10;;
25868;SDS011;13688;53.154;18.136;2023-01-13T23:38:05;10.50;;;3.53;;
25868;SDS011;13688;53.154;18.136;2023-01-13T23:43:28;7.37;;;3.10;;
25868;SDS011;13688;53.154;18.136;2023-01-13T23:48:50;10.65;;;3.27;;
25868;SDS011;13688;53.154;18.136;2023-01-13T23:54:13;12.37;;;3.50;;
25868;SDS011;13688;53.154;18.136;2023-01-13T23:59:35;10.57;;;3.10;;
